Time;durP1;ratioP1;P1;durP2;ratioP2;P2;SDS_P1;SDS_P2;PMS_P1;PMS_P2;Temp;Humidity;BMP_temperature;BMP_pressure;BME280_temperature;BME280_humidity;BME280_pressure;Samples;Min_cycle;Max_cycle;Signal;HPM_P1;HPM_P2
2022/10/28 00:01:09;;;;;;;6.00;3.22;;;;;;;17.46;100.00;97228.31;5093447;28;19966;-48
2022/10/28 00:03:38;;;;;;;7.18;3.08;;;;;;;17.47;100.00;97227.31;5094831;28;20087;-43
2022/10/28 00:06:08;;;;;;;4.15;2.67;;;;;;;17.48;100.00;97230.81;5092497;28;20604;-46
2022/10/28 00:08:36;;;;;;;8.05;3.42;;;;;;;17.47;100.00;97237.97;5100747;28;20075;-46
2022/10/28 00:11:08;;;;;;;9.48;3.22;;;;;;;17.28;100.00;97233.03;5093159;28;20076;-46
2022/10/28 00:13:37;;;;;;;7.95;3.22;;;;;;;17.47;100.00;97229.97;5095602;28;20064;-48
2022/10/28 00:16:10;;;;;;;5.68;2.90;;;;;;;17.55;100.00;97229.16;5097365;28;20475;-45
2022/10/28 00:18:39;;;;;;;5.50;2.85;;;;;;;17.53;100.00;97226.63;5092277;28;20083;-45
2022/10/28 00:21:13;;;;;;;4.97;3.15;;;;;;;17.63;100.00;97236.31;5093519;28;20080;-42
2022/10/28 00:23:41;;;;;;;7.45;3.22;;;;;;;17.58;100.00;97231.47;5097346;28;20087;-42
2022/10/28 00:26:13;;;;;;;8.98;3.45;;;;;;;17.61;100.00;97223.13;5096283;28;20748;-43
2022/10/28 00:28:41;;;;;;;7.50;2.80;;;;;;;17.62;100.00;97222.13;5092085;28;20068;-43
2022/10/28 00:31:11;;;;;;;6.35;2.83;;;;;;;17.64;100.00;97224.63;5097532;28;20078;-44
2022/10/28 00:33:39;;;;;;;5.03;2.60;;;;;;;17.60;100.00;97229.47;5098491;28;20087;-43
2022/10/28 00:36:13;;;;;;;7.53;2.97;;;;;;;17.59;100.00;97233.16;5107873;28;20078;-46
2022/10/28 00:38:42;;;;;;;4.43;2.72;;;;;;;17.48;100.00;97237.00;5098880;28;20166;-51
2022/10/28 00:41:14;;;;;;;5.80;2.55;;;;;;;17.51;100.00;97241.97;5099408;28;20079;-46
2022/10/28 00:43:45;;;;;;;6.45;2.83;;;;;;;17.21;100.00;97232.84;5096807;28;20497;-45
2022/10/28 00:46:19;;;;;;;5.40;3.03;;;;;;;17.18;100.00;97235.03;5103448;28;20454;-44
2022/10/28 00:48:50;;;;;;;5.60;2.70;;;;;;;17.19;100.00;97224.19;5100567;28;20092;-48
2022/10/28 00:51:20;;;;;;;6.13;2.67;;;;;;;17.25;100.00;97225.34;5097342;28;20078;-44
2022/10/28 00:53:48;;;;;;;7.32;2.70;;;;;;;17.27;100.00;97223.34;5099118;28;20071;-45
2022/10/28 00:56:18;;;;;;;5.97;3.00;;;;;;;17.27;100.00;97221.53;5098620;28;20080;-45
2022/10/28 00:58:48;;;;;;;4.38;2.75;;;;;;;17.26;100.00;97225.16;5099356;28;20071;-45
2022/10/28 01:01:16;;;;;;;7.37;2.67;;;;;;;17.18;100.00;97227.84;5100412;28;20596;-44
2022/10/28 01:03:45;;;;;;;4.43;2.70;;;;;;;16.91;100.00;97220.19;5104478;28;20083;-45
2022/10/28 01:06:13;;;;;;;4.93;2.63;;;;;;;16.65;100.00;97226.44;5101749;28;20075;-47
2022/10/28 01:08:41;;;;;;;6.60;2.78;;;;;;;16.67;100.00;97228.94;5099013;28;20094;-44
2022/10/28 01:11:23;;;;;;;5.05;2.85;;;;;;;16.89;100.00;97224.84;5098321;28;20072;-47
2022/10/28 01:14:08;;;;;;;5.03;2.78;;;;;;;17.02;100.00;97223.34;5104603;28;20481;-49
2022/10/28 01:16:45;;;;;;;6.28;2.70;;;;;;;16.88;100.00;97234.66;5098409;28;20067;-43
2022/10/28 01:19:33;;;;;;;7.60;2.50;;;;;;;17.08;100.00;97217.34;5100727;28;20076;-43
2022/10/28 01:22:07;;;;;;;7.93;2.70;;;;;;;17.00;100.00;97221.88;5097747;28;20094;-47
2022/10/28 01:25:07;;;;;;;5.32;2.78;;;;;;;17.09;100.00;97216.34;5097890;28;20068;-42
2022/10/28 01:28:13;;;;;;;5.18;2.58;;;;;;;16.97;100.00;97214.19;5097939;28;20597;-51
2022/10/28 01:31:08;;;;;;;5.72;2.65;;;;;;;17.10;100.00;97219.84;5097471;28;20455;-48
2022/10/28 01:33:40;;;;;;;5.35;2.72;;;;;;;17.11;100.00;97215.38;5098113;28;20075;-48
2022/10/28 01:36:13;;;;;;;3.55;2.38;;;;;;;16.82;100.00;97214.00;5102352;28;20086;-43
2022/10/28 01:38:49;;;;;;;4.05;2.50;;;;;;;16.21;100.00;97220.50;5097727;28;20067;-43
2022/10/28 01:41:22;;;;;;;3.83;2.75;;;;;;;16.45;100.00;97214.41;5099916;28;20082;-47
2022/10/28 01:43:56;;;;;;;5.70;2.65;;;;;;;16.72;100.00;97227.44;5096890;28;20545;-48
2022/10/28 01:46:28;;;;;;;6.90;2.58;;;;;;;16.72;100.00;97223.94;5097241;28;20086;-48
2022/10/28 01:48:59;;;;;;;6.15;2.67;;;;;;;16.57;100.00;97223.75;5097215;28;20086;-50
2022/10/28 01:51:29;;;;;;;;;;;;;;;16.78;100.00;97224.16;5098515;28;20071;-46
2022/10/28 01:53:59;;;;;;;3.42;2.70;;;;;;;16.76;100.00;97223.50;5099633;28;19951;-47
2022/10/28 01:56:31;;;;;;;4.25;2.53;;;;;;;16.37;100.00;97217.88;5097314;28;20074;-43
2022/10/28 01:59:00;;;;;;;4.47;2.55;;;;;;;16.62;100.00;97229.44;5101893;28;20074;-43
2022/10/28 02:01:30;;;;;;;6.82;2.90;;;;;;;16.73;100.00;97230.97;5100049;28;20141;-48
2022/10/28 02:03:59;;;;;;;7.63;2.70;;;;;;;16.50;100.00;97217.44;5105522;28;20075;-43
2022/10/28 02:06:30;;;;;;;6.18;3.10;;;;;;;16.36;100.00;97224.22;5095655;28;20091;-46
2022/10/28 02:09:15;;;;;;;6.32;2.72;;;;;;;15.96;100.00;97214.25;5094528;28;20091;-50
2022/10/28 02:12:01;;;;;;;6.07;2.63;;;;;;;16.14;100.00;97209.69;5098157;28;20556;-43
2022/10/28 02:14:39;;;;;;;6.35;2.92;;;;;;;16.15;100.00;97216.66;5078512;28;20502;-46
2022/10/28 02:17:19;;;;;;;6.57;2.90;;;;;;;16.50;100.00;97212.09;5099210;28;20071;-46
2022/10/28 02:19:51;;;;;;;5.50;3.28;;;;;;;16.12;100.00;97209.81;5099740;28;20086;-46
2022/10/28 02:22:23;;;;;;;7.25;2.90;;;;;;;16.23;100.00;97211.34;5099590;28;20074;-43
2022/10/28 02:24:57;;;;;;;5.15;2.70;;;;;;;15.08;100.00;97211.72;5096688;28;20078;-47
2022/10/28 02:27:34;;;;;;;4.65;2.97;;;;;;;15.65;100.00;97212.91;5097210;28;20088;-46
2022/10/28 02:30:06;;;;;;;3.38;2.53;;;;;;;15.63;100.00;97206.09;5100064;28;20094;-45
2022/10/28 02:32:39;;;;;;;7.15;2.70;;;;;;;15.69;100.00;97210.81;5095147;28;20463;-43
2022/10/28 02:35:10;;;;;;;3.80;2.50;;;;;;;15.97;100.00;97199.97;5096781;28;20079;-42
2022/10/28 02:37:40;;;;;;;5.05;2.40;;;;;;;16.16;100.00;97205.00;5097784;28;21508;-42
2022/10/28 02:40:12;;;;;;;4.60;2.40;;;;;;;15.95;100.00;97202.78;5098861;28;20079;-46
2022/10/28 02:42:45;;;;;;;5.07;2.75;;;;;;;15.51;100.00;97204.69;5101753;28;20086;-45
2022/10/28 02:45:16;;;;;;;4.45;2.55;;;;;;;15.82;100.00;97211.19;5102597;28;20067;-44
2022/10/28 02:47:48;;;;;;;7.43;2.38;;;;;;;16.15;100.00;97208.69;5093886;28;20109;-43
2022/10/28 02:50:18;;;;;;;6.20;2.50;;;;;;;15.78;100.00;97201.03;5097023;28;20474;-45
2022/10/28 02:52:49;;;;;;;6.53;2.45;;;;;;;15.27;100.00;97202.69;5096816;28;20078;-49
2022/10/28 02:55:19;;;;;;;4.45;2.72;;;;;;;14.72;100.00;97207.25;5096927;28;20083;-45
2022/10/28 02:57:48;;;;;;;3.83;2.50;;;;;;;14.90;100.00;97201.09;5092596;28;20063;-43
2022/10/28 03:00:19;;;;;;;8.10;2.83;;;;;;;15.04;100.00;97197.91;5098366;28;20090;-44
2022/10/28 03:02:49;;;;;;;8.73;3.08;;;;;;;15.77;100.00;97196.72;5097224;28;20084;-45
2022/10/28 03:05:17;;;;;;;5.47;3.20;;;;;;;16.01;100.00;97196.00;5095803;28;20617;-45
2022/10/28 03:07:46;;;;;;;9.32;3.15;;;;;;;16.04;100.00;97187.69;5092857;28;20040;-47
2022/10/28 03:10:14;;;;;;;6.88;2.92;;;;;;;16.16;100.00;97188.22;5101963;28;20483;-49
2022/10/28 03:12:42;;;;;;;7.85;3.00;;;;;;;16.21;100.00;97184.09;5103003;28;20079;-47
2022/10/28 03:15:11;;;;;;;6.93;2.80;;;;;;;16.27;100.00;97196.72;5094682;28;20094;-44
2022/10/28 03:17:40;;;;;;;5.80;2.90;;;;;;;16.36;100.00;97189.59;5102956;28;20094;-42
2022/10/28 03:20:11;;;;;;;4.35;2.75;;;;;;;16.30;100.00;97190.25;5101321;28;20094;-51
2022/10/28 03:22:39;;;;;;;6.63;2.60;;;;;;;16.27;100.00;97187.91;5098793;28;20537;-44
2022/10/28 03:25:07;;;;;;;7.65;3.10;;;;;;;16.21;100.00;97191.22;5095177;28;20084;-47
2022/10/28 03:27:36;;;;;;;5.05;2.95;;;;;;;16.11;100.00;97194.03;5098349;28;20075;-43
2022/10/28 03:30:05;;;;;;;7.28;2.47;;;;;;;16.16;100.00;97194.38;5096647;28;20071;-45
2022/10/28 03:32:33;;;;;;;2.90;2.22;;;;;;;16.27;100.00;97198.56;5094915;28;20080;-46
2022/10/28 03:35:01;;;;;;;4.20;2.53;;;;;;;15.99;100.00;97197.97;5095875;28;20101;-44
2022/10/28 03:37:31;;;;;;;6.78;2.88;;;;;;;16.08;100.00;97197.84;5099278;28;20083;-43
2022/10/28 03:40:01;;;;;;;3.38;2.40;;;;;;;16.28;100.00;97193.09;5096596;28;20090;-43
2022/10/28 03:42:29;;;;;;;5.40;3.05;;;;;;;16.14;100.00;97193.72;5098827;28;20035;-46
2022/10/28 03:44:58;;;;;;;5.00;2.50;;;;;;;15.65;100.00;97188.13;5098798;28;20097;-46
2022/10/28 03:47:26;;;;;;;3.80;2.30;;;;;;;14.25;100.00;97198.63;5093259;28;20082;-48
2022/10/28 03:49:54;;;;;;;4.95;2.60;;;;;;;14.74;100.00;97188.53;5097986;28;20067;-45
2022/10/28 03:52:22;;;;;;;6.57;2.53;;;;;;;14.64;100.00;97187.75;5101044;28;20090;-45
2022/10/28 03:54:52;;;;;;;6.30;2.72;;;;;;;15.37;100.00;97183.00;5101027;28;20086;-44
2022/10/28 03:57:20;;;;;;;4.88;2.25;;;;;;;15.60;100.00;97185.13;5098793;28;20078;-48
2022/10/28 03:59:48;;;;;;;5.10;2.63;;;;;;;15.73;100.00;97182.91;5096658;28;20489;-48
2022/10/28 04:02:16;;;;;;;8.13;2.40;;;;;;;15.89;100.00;97188.28;5093100;28;20082;-52
2022/10/28 04:04:45;;;;;;;4.22;2.40;;;;;;;15.86;100.00;97193.09;5096658;28;20518;-44
2022/10/28 04:07:13;;;;;;;3.25;2.25;;;;;;;15.90;100.00;97197.13;5104969;28;20086;-48
2022/10/28 04:09:41;;;;;;;7.22;2.50;;;;;;;16.03;100.00;97194.00;5095335;28;20079;-44
2022/10/28 04:12:11;;;;;;;6.32;2.67;;;;;;;15.98;100.00;97196.31;5093008;28;20080;-50
2022/10/28 04:14:39;;;;;;;5.53;2.47;;;;;;;15.84;100.00;97195.91;5100201;28;20095;-45
2022/10/28 04:17:08;;;;;;;7.10;2.60;;;;;;;15.77;100.00;97196.72;5092555;28;20095;-46
2022/10/28 04:19:36;;;;;;;8.90;2.40;;;;;;;15.79;100.00;97200.03;5097636;28;20075;-49
2022/10/28 04:22:04;;;;;;;5.90;2.55;;;;;;;15.92;100.00;97200.44;5093710;28;20083;-47
2022/10/28 04:24:32;;;;;;;7.45;2.40;;;;;;;15.94;100.00;97200.28;5102604;28;20079;-47
2022/10/28 04:27:01;;;;;;;4.32;2.63;;;;;;;15.78;100.00;97201.88;5097057;28;20083;-43
2022/10/28 04:29:31;;;;;;;4.22;2.33;;;;;;;15.80;100.00;97193.75;5099556;28;20063;-48
2022/10/28 04:32:00;;;;;;;6.15;2.35;;;;;;;15.70;100.00;97196.53;5093784;28;20082;-45
2022/10/28 04:34:28;;;;;;;5.95;2.90;;;;;;;15.49;100.00;97196.03;5095892;28;20086;-49
2022/10/28 04:36:56;;;;;;;7.00;3.00;;;;;;;15.72;100.00;97194.53;5103013;28;20549;-42
2022/10/28 04:39:25;;;;;;;6.55;2.47;;;;;;;15.79;100.00;97200.88;5094564;28;20548;-49
2022/10/28 04:41:53;;;;;;;7.55;2.70;;;;;;;15.80;100.00;97199.91;5094600;28;20086;-52
2022/10/28 04:44:21;;;;;;;4.95;2.50;;;;;;;15.65;100.00;97202.25;5092899;28;20075;-49
2022/10/28 04:46:50;;;;;;;6.63;2.70;;;;;;;15.73;100.00;97201.53;5094551;28;20451;-44
2022/10/28 04:49:19;;;;;;;6.22;2.50;;;;;;;15.76;100.00;97198.56;5100793;28;20079;-48
2022/10/28 04:51:47;;;;;;;3.75;2.55;;;;;;;15.90;100.00;97195.28;5094655;28;20086;-44
2022/10/28 04:54:15;;;;;;;6.63;2.83;;;;;;;15.74;100.00;97192.53;5097876;28;20074;-45
2022/10/28 04:56:43;;;;;;;4.68;2.70;;;;;;;15.71;100.00;97190.19;5102012;28;20076;-45
2022/10/28 04:59:12;;;;;;;4.57;2.55;;;;;;;15.07;100.00;97188.75;5099143;28;20470;-44
2022/10/28 05:01:40;;;;;;;5.93;2.38;;;;;;;14.47;100.00;97194.69;5098651;28;20083;-45
2022/10/28 05:04:10;;;;;;;5.00;2.70;;;;;;;14.39;100.00;97197.28;5102411;28;20079;-42
2022/10/28 05:06:39;;;;;;;3.60;2.28;;;;;;;14.54;100.00;97192.31;5094654;28;21067;-44
2022/10/28 05:09:07;;;;;;;4.28;2.50;;;;;;;15.11;100.00;97183.00;5094672;28;20527;-42
2022/10/28 05:11:35;;;;;;;6.78;2.28;;;;;;;15.19;100.00;97192.84;5092119;28;20090;-43
2022/10/28 05:14:03;;;;;;;6.60;2.05;;;;;;;15.41;100.00;97183.50;5098207;28;20082;-47
2022/10/28 05:16:32;;;;;;;4.70;2.17;;;;;;;15.25;100.00;97178.13;5093102;28;20078;-46
2022/10/28 05:19:00;;;;;;;4.05;2.40;;;;;;;15.35;100.00;97177.03;5097996;28;20079;-47
2022/10/28 05:21:30;;;;;;;5.38;2.38;;;;;;;15.37;100.00;97180.34;5100431;28;20075;-43
2022/10/28 05:23:58;;;;;;;5.57;2.25;;;;;;;15.46;100.00;97181.25;5098562;28;20083;-46
2022/10/28 05:26:26;;;;;;;4.38;2.30;;;;;;;15.31;100.00;97183.66;5102190;28;20150;-43
2022/10/28 05:28:54;;;;;;;4.80;2.47;;;;;;;15.28;100.00;97183.09;5096067;28;20080;-44
2022/10/28 05:31:23;;;;;;;4.90;2.42;;;;;;;15.57;100.00;97180.97;5099641;28;20083;-46
2022/10/28 05:33:51;;;;;;;6.63;2.50;;;;;;;15.62;100.00;97191.97;5101562;28;20082;-48
2022/10/28 05:36:19;;;;;;;3.28;2.30;;;;;;;15.55;100.00;97182.94;5102426;28;20556;-42
2022/10/28 05:38:49;;;;;;;2.83;2.00;;;;;;;15.44;100.00;97189.34;5097618;28;20094;-51
2022/10/28 05:41:17;;;;;;;6.32;2.38;;;;;;;15.45;100.00;97192.88;5103728;28;20133;-46
2022/10/28 05:43:45;;;;;;;4.72;2.40;;;;;;;15.50;100.00;97187.91;5101255;28;20099;-42
2022/10/28 05:46:13;;;;;;;3.17;1.80;;;;;;;15.42;100.00;97190.53;5098070;28;20075;-44
2022/10/28 05:48:41;;;;;;;6.28;2.65;;;;;;;15.55;100.00;97190.06;5102719;28;20079;-46
2022/10/28 05:51:10;;;;;;;5.80;2.45;;;;;;;15.60;100.00;97179.81;5097497;28;20076;-44
2022/10/28 05:53:40;;;;;;;5.00;2.38;;;;;;;15.72;100.00;97185.72;5100326;28;20086;-44
2022/10/28 05:56:10;;;;;;;5.88;3.42;;;;;;;15.82;100.00;97187.25;5094353;28;20084;-46
2022/10/28 05:58:38;;;;;;;4.90;3.30;;;;;;;15.69;100.00;97180.72;5103796;28;20083;-46
2022/10/28 06:01:07;;;;;;;5.68;3.22;;;;;;;15.62;100.00;97197.28;5094581;28;20059;-48
2022/10/28 06:03:36;;;;;;;8.82;3.42;;;;;;;15.39;100.00;97196.16;5098489;28;20066;-46
2022/10/28 06:06:04;;;;;;;7.68;3.28;;;;;;;15.17;100.00;97195.69;5099366;28;20078;-48
2022/10/28 06:08:32;;;;;;;5.32;2.90;;;;;;;15.51;100.00;97205.50;5099338;28;20666;-46
2022/10/28 06:11:01;;;;;;;7.40;3.83;;;;;;;15.76;100.00;97195.03;5101697;28;20063;-46
2022/10/28 06:13:30;;;;;;;7.40;3.60;;;;;;;15.96;100.00;97201.78;5104216;28;20083;-46
2022/10/28 06:15:59;;;;;;;9.13;3.50;;;;;;;15.89;100.00;97206.91;5103387;28;20479;-48
2022/10/28 06:18:27;;;;;;;5.97;3.33;;;;;;;16.11;100.00;97213.50;5092667;28;20083;-46
2022/10/28 06:20:56;;;;;;;4.80;2.92;;;;;;;16.24;100.00;97212.19;5097564;28;20643;-43
2022/10/28 06:23:25;;;;;;;5.25;2.75;;;;;;;16.06;100.00;97206.97;5095635;28;20067;-45
2022/10/28 06:25:56;;;;;;;7.18;3.67;;;;;;;15.99;100.00;97209.44;5101020;28;20079;-47
2022/10/28 06:28:26;;;;;;;4.78;3.28;;;;;;;15.84;100.00;97209.22;5101677;28;20071;-49
2022/10/28 06:31:01;;;;;;;8.07;3.20;;;;;;;15.35;100.00;97211.56;5098676;28;20454;-45
2022/10/28 06:33:29;;;;;;;5.25;3.58;;;;;;;14.76;100.00;97213.06;5101196;28;20078;-45
2022/10/28 06:35:58;;;;;;;7.72;3.15;;;;;;;15.36;100.00;97202.59;5100926;28;20091;-45
2022/10/28 06:38:26;;;;;;;11.02;3.70;;;;;;;14.88;100.00;97211.88;5095442;28;20071;-49
2022/10/28 06:40:57;;;;;;;10.23;3.97;;;;;;;15.20;100.00;97210.44;5098476;28;20072;-46
2022/10/28 06:43:25;;;;;;;;;;;;;;;15.61;100.00;97214.22;5097900;28;20098;-45
2022/10/28 06:45:56;;;;;;;9.02;3.97;;;;;;;16.25;100.00;97206.72;5096137;28;19951;-46
2022/10/28 06:48:24;;;;;;;8.80;3.75;;;;;;;16.71;100.00;97215.13;5103179;28;20067;-48
2022/10/28 06:50:55;;;;;;;8.10;4.35;;;;;;;16.67;100.00;97215.63;5098439;28;20070;-50
2022/10/28 06:53:23;;;;;;;9.90;4.32;;;;;;;17.00;100.00;97221.88;5099417;28;20067;-44
2022/10/28 06:55:54;;;;;;;8.07;4.25;;;;;;;17.15;100.00;97222.03;5096383;28;20056;-45
2022/10/28 06:58:23;;;;;;;12.30;3.33;;;;;;;17.06;100.00;97227.34;5078096;28;20075;-49
2022/10/28 07:00:52;;;;;;;9.68;3.45;;;;;;;17.18;100.00;97232.34;5092210;28;20055;-44
2022/10/28 07:03:22;;;;;;;9.48;3.47;;;;;;;17.44;100.00;97232.16;5100939;28;20074;-50
2022/10/28 07:05:50;;;;;;;10.48;3.45;;;;;;;17.57;100.00;97224.47;5103900;28;20541;-44
2022/10/28 07:08:18;;;;;;;11.23;3.55;;;;;;;17.69;100.00;97230.28;5094571;28;20548;-47
2022/10/28 07:10:54;;;;;;;13.10;3.90;;;;;;;17.89;100.00;97234.25;5097784;28;21954;-43
2022/10/28 07:13:22;;;;;;;7.75;2.95;;;;;;;17.94;100.00;97239.91;5094294;28;20556;-43
2022/10/28 07:15:53;;;;;;;7.35;2.65;;;;;;;18.03;100.00;97241.56;5098997;28;20079;-47
2022/10/28 07:18:25;;;;;;;4.63;2.97;;;;;;;18.22;100.00;97236.81;5094390;28;20597;-53
2022/10/28 07:20:54;;;;;;;5.10;3.00;;;;;;;18.36;100.00;97232.56;5098200;28;20059;-49
2022/10/28 07:23:22;;;;;;;9.82;3.60;;;;;;;18.48;100.00;97231.19;5097091;28;20086;-45
2022/10/28 07:25:53;;;;;;;15.55;3.90;;;;;;;18.76;100.00;97230.72;5101548;28;20117;-44
2022/10/28 07:28:22;;;;;;;11.07;3.30;;;;;;;19.01;100.00;97242.91;5099373;28;20084;-43
2022/10/28 07:30:50;;;;;;;9.95;4.15;;;;;;;19.12;100.00;97250.50;5096275;28;20090;-45
2022/10/28 07:33:18;;;;;;;6.82;3.40;;;;;;;19.21;100.00;97249.44;5098089;28;20083;-42
2022/10/28 07:35:48;;;;;;;10.88;3.92;;;;;;;19.28;100.00;97252.22;5097950;28;20083;-47
2022/10/28 07:38:16;;;;;;;7.78;3.53;;;;;;;19.30;100.00;97255.53;5100697;28;20102;-48
2022/10/28 07:40:44;;;;;;;5.88;3.38;;;;;;;19.72;100.00;97254.19;5100143;28;20126;-48
2022/10/28 07:43:13;;;;;;;6.38;3.80;;;;;;;19.98;100.00;97252.91;5099810;28;20083;-44
2022/10/28 07:45:41;;;;;;;8.43;3.90;;;;;;;20.40;100.00;97249.53;5100236;28;20090;-48
2022/10/28 07:48:09;;;;;;;10.88;4.15;;;;;;;20.56;100.00;97257.41;5099671;28;20080;-43
2022/10/28 07:50:38;;;;;;;6.72;3.42;;;;;;;20.84;100.00;97259.38;5096885;28;20098;-48
2022/10/28 07:53:07;;;;;;;7.55;3.40;;;;;;;21.16;100.00;97259.91;5100749;28;20080;-49
2022/10/28 07:55:35;;;;;;;8.93;3.57;;;;;;;21.39;100.00;97252.50;5095880;28;20464;-46
2022/10/28 07:58:04;;;;;;;5.93;3.60;;;;;;;21.73;100.00;97240.19;5100175;28;20083;-43
2022/10/28 08:00:32;;;;;;;8.27;2.95;;;;;;;21.48;100.00;97247.84;5102026;28;20079;-45
2022/10/28 08:03:02;;;;;;;6.82;3.50;;;;;;;21.31;100.00;97252.63;5100128;28;20546;-52
2022/10/28 08:05:30;;;;;;;20.52;10.15;;;;;;;21.02;100.00;97242.84;5098503;28;20512;-44
2022/10/28 08:07:58;;;;;;;24.75;13.65;;;;;;;22.01;100.00;97235.59;5096504;28;20083;-47
2022/10/28 08:10:28;;;;;;;30.52;14.30;;;;;;;22.56;100.00;97237.56;5098808;28;20081;-48
2022/10/28 08:12:56;;;;;;;35.67;17.50;;;;;;;22.91;100.00;97243.66;5098264;28;20462;-45
2022/10/28 08:15:25;;;;;;;46.58;24.00;;;;;;;22.17;100.00;97252.47;5100432;28;20087;-46
2022/10/28 08:17:53;;;;;;;35.85;20.10;;;;;;;22.57;100.00;97249.97;5097554;28;20086;-47
2022/10/28 08:20:23;;;;;;;21.67;9.73;;;;;;;22.79;97.44;97251.50;5102453;28;20522;-48
2022/10/28 08:22:51;;;;;;;9.93;5.18;;;;;;;22.28;99.16;97257.28;5096610;28;20482;-48
2022/10/28 08:25:20;;;;;;;4.95;2.83;;;;;;;22.79;93.47;97242.59;5097595;28;20083;-49
2022/10/28 08:27:49;;;;;;;6.20;2.20;;;;;;;22.74;100.00;97244.00;5093633;28;20473;-47
2022/10/28 08:30:18;;;;;;;4.80;2.30;;;;;;;22.81;98.54;97241.34;5101682;28;20090;-49
2022/10/28 08:32:46;;;;;;;5.97;2.30;;;;;;;22.52;97.31;97245.19;5091235;28;20138;-49
2022/10/28 08:35:14;;;;;;;5.85;2.30;;;;;;;23.08;89.67;97242.28;5102389;28;20067;-46
2022/10/28 08:37:44;;;;;;;8.02;2.28;;;;;;;22.06;100.00;97243.09;5095983;28;21032;-44
2022/10/28 08:40:13;;;;;;;4.22;2.20;;;;;;;21.87;100.00;97239.25;5101587;28;20463;-45
2022/10/28 08:42:46;;;;;;;5.00;2.38;;;;;;;23.42;99.71;97235.06;5095382;28;20538;-43
2022/10/28 08:45:23;;;;;;;3.47;1.95;;;;;;;23.08;100.00;97228.81;5097326;28;20083;-44
2022/10/28 08:48:02;;;;;;;3.58;2.08;;;;;;;22.71;100.00;97222.06;5099229;28;20475;-47
2022/10/28 08:50:32;;;;;;;6.15;2.17;;;;;;;23.05;100.00;97225.72;5097416;28;20651;-43
2022/10/28 08:53:04;;;;;;;5.90;2.10;;;;;;;22.49;100.00;97219.53;5094142;28;20536;-47
2022/10/28 08:55:35;;;;;;;4.93;2.33;;;;;;;22.64;100.00;97219.41;5102361;28;20083;-45
2022/10/28 08:58:08;;;;;;;4.88;2.47;;;;;;;22.71;100.00;97222.94;5103520;28;20082;-44
2022/10/28 09:00:39;;;;;;;10.88;2.60;;;;;;;24.45;93.06;97219.16;5101884;28;20091;-43
2022/10/28 09:03:15;;;;;;;4.43;2.30;;;;;;;24.68;85.58;97232.13;5101270;28;20079;-44
2022/10/28 09:05:46;;;;;;;4.57;2.30;;;;;;;23.77;90.20;97227.59;5101390;28;20094;-44
2022/10/28 09:08:21;;;;;;;4.43;2.00;;;;;;;24.85;79.58;97233.28;5097369;28;20072;-44
2022/10/28 09:11:00;;;;;;;9.32;2.50;;;;;;;24.66;79.97;97236.09;5105114;28;21142;-43
2022/10/28 09:13:35;;;;;;;10.23;2.60;;;;;;;24.77;76.87;97227.31;5104478;28;20160;-49
2022/10/28 09:16:08;;;;;;;3.97;2.00;;;;;;;25.17;75.12;97230.63;5103946;28;20548;-45
2022/10/28 09:18:51;;;;;;;5.35;2.53;;;;;;;25.31;74.03;97234.88;5098808;28;20087;-43
2022/10/28 09:21:22;;;;;;;5.22;2.38;;;;;;;25.20;75.60;97232.06;5099151;28;20530;-47
2022/10/28 09:23:55;;;;;;;6.05;2.38;;;;;;;25.28;73.67;97229.91;5104542;28;20094;-46
2022/10/28 09:26:31;;;;;;;5.72;2.78;;;;;;;25.44;73.42;97231.25;5097247;28;20079;-50
2022/10/28 09:29:07;;;;;;;6.35;2.20;;;;;;;25.78;71.29;97221.00;5102318;28;20075;-47
2022/10/28 09:31:42;;;;;;;6.30;2.20;;;;;;;25.80;68.88;97219.72;5105376;28;20083;-45
2022/10/28 09:34:18;;;;;;;6.75;2.20;;;;;;;25.55;71.00;97218.91;5102973;28;20079;-47
2022/10/28 09:36:50;;;;;;;7.03;2.20;;;;;;;25.36;72.93;97228.81;5100923;28;20507;-46
2022/10/28 09:39:21;;;;;;;5.43;2.30;;;;;;;25.78;70.94;97221.81;5101644;28;20075;-48
2022/10/28 09:41:57;;;;;;;5.22;2.05;;;;;;;25.89;60.70;97217.56;5103148;28;20098;-46
2022/10/28 09:44:32;;;;;;;3.75;2.10;;;;;;;26.46;60.04;97220.03;5101538;28;20071;-45
2022/10/28 09:47:04;;;;;;;5.90;2.30;;;;;;;26.31;59.44;97222.31;5100586;28;20086;-46
2022/10/28 09:49:35;;;;;;;5.68;2.30;;;;;;;25.73;60.72;97231.63;5097586;28;20561;-50
2022/10/28 09:52:08;;;;;;;8.52;2.42;;;;;;;25.83;59.94;97226.56;5099713;28;20466;-46
2022/10/28 09:54:44;;;;;;;5.00;1.70;;;;;;;26.17;60.75;97227.06;5095289;28;20067;-43
2022/10/28 09:57:13;;;;;;;7.00;2.08;;;;;;;25.20;68.07;97226.66;5101261;28;20582;-47
2022/10/28 09:59:44;;;;;;;5.60;1.90;;;;;;;25.52;64.07;97228.25;5100637;28;20086;-46
2022/10/28 10:02:25;;;;;;;7.30;2.08;;;;;;;25.01;70.21;97225.72;5100746;28;20078;-46
2022/10/28 10:04:54;;;;;;;6.13;1.90;;;;;;;24.50;79.28;97223.91;5098191;28;20079;-47
2022/10/28 10:07:30;;;;;;;5.97;2.20;;;;;;;25.23;72.88;97212.72;5098426;28;20086;-53
2022/10/28 10:10:00;;;;;;;5.07;1.95;;;;;;;24.83;77.25;97216.47;5101782;28;20079;-45
2022/10/28 10:12:29;;;;;;;6.85;2.33;;;;;;;25.50;74.33;97214.16;5101465;28;20082;-48
2022/10/28 10:14:58;;;;;;;5.47;2.00;;;;;;;25.82;74.62;97211.41;5098110;28;20094;-45
2022/10/28 10:17:32;;;;;;;5.70;1.80;;;;;;;26.44;67.28;97211.34;5101342;28;20090;-47
2022/10/28 10:20:04;;;;;;;5.78;2.00;;;;;;;26.83;63.46;97211.91;5101086;28;20079;-45
2022/10/28 10:22:34;;;;;;;5.07;2.00;;;;;;;26.33;67.95;97218.34;5098707;28;20636;-47
2022/10/28 10:25:02;;;;;;;5.63;2.03;;;;;;;26.20;67.15;97211.22;5102193;28;20071;-45
2022/10/28 10:27:31;;;;;;;4.18;1.73;;;;;;;25.83;71.30;97202.25;5098431;28;20079;-48
2022/10/28 10:30:00;;;;;;;6.80;1.83;;;;;;;27.05;63.20;97199.50;5096837;28;20083;-47
2022/10/28 10:32:31;;;;;;;7.50;1.77;;;;;;;26.42;69.99;97213.44;5101574;28;20090;-49
2022/10/28 10:35:03;;;;;;;5.25;2.20;;;;;;;26.91;64.23;97207.00;5100485;28;20082;-47
2022/10/28 10:37:34;;;;;;;7.63;1.83;;;;;;;27.07;61.77;97204.69;5097566;28;20082;-47
2022/10/28 10:40:11;;;;;;;6.82;2.13;;;;;;;26.83;63.03;97207.31;5103893;28;20079;-46
2022/10/28 10:42:39;;;;;;;7.82;1.85;;;;;;;27.37;60.02;97218.22;5099833;28;20072;-53
2022/10/28 10:45:27;;;;;;;4.18;1.60;;;;;;;27.52;58.45;97210.44;5103025;28;20071;-44
2022/10/28 10:48:13;;;;;;;7.38;1.90;;;;;;;27.21;60.02;97198.03;5096530;28;20076;-42
2022/10/28 10:50:42;;;;;;;4.90;2.10;;;;;;;26.75;66.11;97204.94;5097364;28;20079;-44
2022/10/28 10:53:23;;;;;;;7.38;1.60;;;;;;;27.39;65.29;97195.25;5095560;28;20086;-47
2022/10/28 10:55:54;;;;;;;2.92;1.70;;;;;;;27.31;67.82;97187.44;5097882;28;20151;-47
2022/10/28 10:58:24;;;;;;;6.10;1.85;;;;;;;27.26;69.63;97197.34;5104658;28;20086;-48
2022/10/28 11:00:55;;;;;;;3.97;1.85;;;;;;;27.20;71.63;97188.28;5095192;28;20075;-48
2022/10/28 11:03:28;;;;;;;5.82;2.20;;;;;;;26.53;75.29;97182.94;5099293;28;20079;-50
2022/10/28 11:05:57;;;;;;;5.38;1.80;;;;;;;27.40;69.01;97183.34;5096340;28;20555;-47
2022/10/28 11:08:46;;;;;;;3.87;1.90;;;;;;;26.83;73.33;97185.66;5100504;28;20091;-50
2022/10/28 11:11:18;;;;;;;6.20;1.60;;;;;;;26.91;71.40;97179.94;5096156;28;20083;-50
2022/10/28 11:13:48;;;;;;;5.45;1.85;;;;;;;26.90;72.83;97178.25;5096730;28;20079;-44
2022/10/28 11:16:18;;;;;;;6.32;1.67;;;;;;;27.40;65.14;97177.13;5099486;28;20082;-49
2022/10/28 11:18:50;;;;;;;5.97;1.70;;;;;;;27.51;67.80;97175.47;5093326;28;20518;-45
2022/10/28 11:21:41;;;;;;;6.78;1.70;;;;;;;27.79;65.80;97166.66;5100494;28;20469;-50
2022/10/28 11:24:25;;;;;;;6.53;2.00;;;;;;;27.58;67.65;97166.16;5099652;28;20632;-47
2022/10/28 11:27:01;;;;;;;7.32;1.90;;;;;;;27.45;68.87;97166.38;5094322;28;20181;-48
2022/10/28 11:29:29;;;;;;;5.93;1.70;;;;;;;27.66;66.97;97163.09;5096996;28;20083;-45
2022/10/28 11:32:09;;;;;;;8.77;1.85;;;;;;;26.80;72.07;97169.88;5094647;28;20090;-44
2022/10/28 11:34:47;;;;;;;6.53;1.95;;;;;;;27.60;70.03;97164.06;5092742;28;20084;-49
2022/10/28 11:37:19;;;;;;;6.15;1.77;;;;;;;27.14;68.09;97160.22;5091008;28;20075;-45
2022/10/28 11:39:56;;;;;;;6.35;2.08;;;;;;;27.31;66.57;97162.25;5097900;28;20587;-46
2022/10/28 11:42:31;;;;;;;3.60;1.50;;;;;;;27.94;61.12;97153.41;5097148;28;20079;-46
2022/10/28 11:45:02;;;;;;;6.47;1.50;;;;;;;27.69;64.15;97154.47;5103175;28;20083;-45